sensor_id;sensor_type;location;lat;lon;timestamp;P1;durP1;ratioP1;P2;durP2;ratioP2
54561;SDS011;40456;53.358;-1.486;2023-02-15T00:01:29;16.30;;;10.10;;
54561;SDS011;40456;53.358;-1.486;2023-02-15T00:03:55;16.85;;;9.57;;
54561;SDS011;40456;53.358;-1.486;2023-02-15T00:06:20;17.35;;;10.82;;
54561;SDS011;40456;53.358;-1.486;2023-02-15T00:08:46;16.33;;;10.27;;
54561;SDS011;40456;53.358;-1.486;2023-02-15T00:11:12;16.75;;;11.13;;
54561;SDS011;40456;53.358;-1.486;2023-02-15T00:13:39;15.48;;;9.23;;
54561;SDS011;40456;53.358;-1.486;2023-02-15T00:16:09;15.98;;;10.55;;
54561;SDS011;40456;53.358;-1.486;2023-02-15T00:18:36;15.07;;;10.57;;
54561;SDS011;40456;53.358;-1.486;2023-02-15T00:21:06;15.95;;;10.02;;
54561;SDS011;40456;53.358;-1.486;2023-02-15T00:23:32;16.88;;;10.98;;
54561;SDS011;40456;53.358;-1.486;2023-02-15T00:26:05;17.00;;;11.23;;
54561;SDS011;40456;53.358;-1.486;2023-02-15T00:28:39;16.58;;;10.98;;
54561;SDS011;40456;53.358;-1.486;2023-02-15T00:31:08;17.58;;;11.38;;
54561;SDS011;40456;53.358;-1.486;2023-02-15T00:33:35;15.98;;;10.98;;
54561;SDS011;40456;53.358;-1.486;2023-02-15T00:36:02;18.75;;;11.45;;
54561;SDS011;40456;53.358;-1.486;2023-02-15T00:38:29;16.98;;;10.35;;
54561;SDS011;40456;53.358;-1.486;2023-02-15T00:40:56;16.10;;;10.50;;
54561;SDS011;40456;53.358;-1.486;2023-02-15T00:43:22;16.80;;;10.23;;
54561;SDS011;40456;53.358;-1.486;2023-02-15T00:45:48;16.13;;;10.90;;
54561;SDS011;40456;53.358;-1.486;2023-02-15T00:48:14;15.77;;;10.23;;
54561;SDS011;40456;53.358;-1.486;2023-02-15T00:50:39;16.63;;;9.70;;
54561;SDS011;40456;53.358;-1.486;2023-02-15T00:53:05;16.38;;;10.88;;
54561;SDS011;40456;53.358;-1.486;2023-02-15T00:55:30;15.00;;;9.63;;
54561;SDS011;40456;53.358;-1.486;2023-02-15T00:57:56;15.48;;;10.57;;
54561;SDS011;40456;53.358;-1.486;2023-02-15T01:00:21;16.55;;;10.45;;
54561;SDS011;40456;53.358;-1.486;2023-02-15T01:02:46;14.02;;;10.02;;
54561;SDS011;40456;53.358;-1.486;2023-02-15T01:05:12;12.50;;;9.27;;
54561;SDS011;40456;53.358;-1.486;2023-02-15T01:07:37;15.05;;;9.55;;
54561;SDS011;40456;53.358;-1.486;2023-02-15T01:10:04;17.25;;;10.10;;
54561;SDS011;40456;53.358;-1.486;2023-02-15T01:12:31;15.60;;;8.65;;
54561;SDS011;40456;53.358;-1.486;2023-02-15T01:14:56;14.80;;;10.23;;
54561;SDS011;40456;53.358;-1.486;2023-02-15T01:17:21;18.05;;;10.45;;
54561;SDS011;40456;53.358;-1.486;2023-02-15T01:19:47;15.23;;;9.65;;
54561;SDS011;40456;53.358;-1.486;2023-02-15T01:22:12;16.40;;;10.05;;
54561;SDS011;40456;53.358;-1.486;2023-02-15T01:24:37;16.52;;;10.60;;
54561;SDS011;40456;53.358;-1.486;2023-02-15T01:27:03;15.68;;;9.73;;
54561;SDS011;40456;53.358;-1.486;2023-02-15T01:29:28;17.15;;;9.93;;
54561;SDS011;40456;53.358;-1.486;2023-02-15T01:31:54;16.88;;;10.40;;
54561;SDS011;40456;53.358;-1.486;2023-02-15T01:34:19;17.17;;;10.40;;
54561;SDS011;40456;53.358;-1.486;2023-02-15T01:36:44;14.23;;;9.50;;
54561;SDS011;40456;53.358;-1.486;2023-02-15T01:39:10;14.25;;;10.25;;
54561;SDS011;40456;53.358;-1.486;2023-02-15T01:41:36;15.45;;;9.00;;
54561;SDS011;40456;53.358;-1.486;2023-02-15T01:44:02;14.98;;;9.68;;
54561;SDS011;40456;53.358;-1.486;2023-02-15T01:46:38;15.98;;;9.45;;
54561;SDS011;40456;53.358;-1.486;2023-02-15T01:49:14;17.90;;;10.05;;
54561;SDS011;40456;53.358;-1.486;2023-02-15T01:51:41;13.13;;;8.60;;
54561;SDS011;40456;53.358;-1.486;2023-02-15T01:54:16;13.15;;;9.15;;
54561;SDS011;40456;53.358;-1.486;2023-02-15T01:56:45;14.15;;;9.07;;
54561;SDS011;40456;53.358;-1.486;2023-02-15T01:59:13;15.30;;;9.13;;
54561;SDS011;40456;53.358;-1.486;2023-02-15T02:01:41;15.10;;;10.30;;
54561;SDS011;40456;53.358;-1.486;2023-02-15T02:07:15;13.43;;;9.13;;
54561;SDS011;40456;53.358;-1.486;2023-02-15T02:09:44;15.13;;;9.82;;
54561;SDS011;40456;53.358;-1.486;2023-02-15T02:12:09;18.55;;;10.10;;
54561;SDS011;40456;53.358;-1.486;2023-02-15T02:14:35;17.33;;;9.68;;
54561;SDS011;40456;53.358;-1.486;2023-02-15T02:17:17;15.48;;;9.85;;
54561;SDS011;40456;53.358;-1.486;2023-02-15T02:20:01;16.98;;;10.32;;
54561;SDS011;40456;53.358;-1.486;2023-02-15T02:28:14;14.25;;;9.65;;
54561;SDS011;40456;53.358;-1.486;2023-02-15T02:33:53;14.63;;;9.55;;
54561;SDS011;40456;53.358;-1.486;2023-02-15T02:36:30;15.57;;;9.32;;
54561;SDS011;40456;53.358;-1.486;2023-02-15T02:41:28;15.18;;;10.18;;
54561;SDS011;40456;53.358;-1.486;2023-02-15T02:46:30;15.55;;;9.18;;
54561;SDS011;40456;53.358;-1.486;2023-02-15T02:48:58;15.40;;;9.30;;
54561;SDS011;40456;53.358;-1.486;2023-02-15T02:51:23;14.75;;;9.70;;
54561;SDS011;40456;53.358;-1.486;2023-02-15T02:53:53;12.65;;;8.38;;
54561;SDS011;40456;53.358;-1.486;2023-02-15T02:56:24;17.35;;;9.90;;
54561;SDS011;40456;53.358;-1.486;2023-02-15T02:58:55;14.00;;;9.77;;
54561;SDS011;40456;53.358;-1.486;2023-02-15T03:01:26;15.38;;;9.52;;
54561;SDS011;40456;53.358;-1.486;2023-02-15T03:03:59;14.80;;;9.55;;
54561;SDS011;40456;53.358;-1.486;2023-02-15T03:09:41;15.40;;;9.88;;
54561;SDS011;40456;53.358;-1.486;2023-02-15T03:12:12;15.00;;;8.98;;
54561;SDS011;40456;53.358;-1.486;2023-02-15T03:15:11;15.13;;;9.57;;
54561;SDS011;40456;53.358;-1.486;2023-02-15T03:17:42;15.32;;;9.75;;
54561;SDS011;40456;53.358;-1.486;2023-02-15T03:20:12;13.38;;;9.43;;
54561;SDS011;40456;53.358;-1.486;2023-02-15T03:25:20;14.38;;;9.00;;
54561;SDS011;40456;53.358;-1.486;2023-02-15T03:27:52;13.35;;;9.05;;
54561;SDS011;40456;53.358;-1.486;2023-02-15T03:30:26;14.77;;;9.20;;
54561;SDS011;40456;53.358;-1.486;2023-02-15T03:32:53;15.77;;;9.85;;
54561;SDS011;40456;53.358;-1.486;2023-02-15T03:35:20;15.77;;;9.35;;
54561;SDS011;40456;53.358;-1.486;2023-02-15T03:37:48;14.05;;;9.95;;
54561;SDS011;40456;53.358;-1.486;2023-02-15T03:40:19;15.20;;;9.35;;
54561;SDS011;40456;53.358;-1.486;2023-02-15T03:45:55;17.63;;;9.80;;
54561;SDS011;40456;53.358;-1.486;2023-02-15T03:51:13;14.25;;;9.30;;
54561;SDS011;40456;53.358;-1.486;2023-02-15T03:54:02;16.15;;;10.20;;
54561;SDS011;40456;53.358;-1.486;2023-02-15T03:56:29;15.60;;;10.20;;
54561;SDS011;40456;53.358;-1.486;2023-02-15T03:58:56;12.80;;;8.40;;
54561;SDS011;40456;53.358;-1.486;2023-02-15T04:01:59;14.05;;;8.80;;
54561;SDS011;40456;53.358;-1.486;2023-02-15T04:04:34;16.40;;;9.93;;
54561;SDS011;40456;53.358;-1.486;2023-02-15T04:07:02;17.17;;;9.90;;
54561;SDS011;40456;53.358;-1.486;2023-02-15T04:09:29;21.13;;;11.77;;
54561;SDS011;40456;53.358;-1.486;2023-02-15T04:12:13;15.82;;;10.02;;
54561;SDS011;40456;53.358;-1.486;2023-02-15T04:14:38;17.77;;;11.88;;
54561;SDS011;40456;53.358;-1.486;2023-02-15T04:17:22;17.77;;;10.95;;
54561;SDS011;40456;53.358;-1.486;2023-02-15T04:19:47;15.25;;;10.00;;
54561;SDS011;40456;53.358;-1.486;2023-02-15T04:22:31;16.63;;;11.00;;
54561;SDS011;40456;53.358;-1.486;2023-02-15T04:25:15;14.98;;;9.77;;
54561;SDS011;40456;53.358;-1.486;2023-02-15T04:27:42;14.35;;;9.00;;
54561;SDS011;40456;53.358;-1.486;2023-02-15T04:30:09;17.20;;;9.88;;
54561;SDS011;40456;53.358;-1.486;2023-02-15T04:32:36;15.55;;;9.73;;
54561;SDS011;40456;53.358;-1.486;2023-02-15T04:35:01;15.45;;;9.75;;
54561;SDS011;40456;53.358;-1.486;2023-02-15T04:37:27;15.68;;;9.65;;
54561;SDS011;40456;53.358;-1.486;2023-02-15T04:39:52;12.07;;;8.60;;
54561;SDS011;40456;53.358;-1.486;2023-02-15T04:42:18;17.50;;;10.57;;
54561;SDS011;40456;53.358;-1.486;2023-02-15T04:44:44;13.75;;;8.75;;
54561;SDS011;40456;53.358;-1.486;2023-02-15T04:47:09;17.50;;;10.65;;
54561;SDS011;40456;53.358;-1.486;2023-02-15T04:49:35;16.20;;;9.88;;
54561;SDS011;40456;53.358;-1.486;2023-02-15T04:52:00;14.02;;;9.35;;
54561;SDS011;40456;53.358;-1.486;2023-02-15T04:54:26;15.27;;;9.85;;
54561;SDS011;40456;53.358;-1.486;2023-02-15T04:56:51;15.70;;;9.68;;
54561;SDS011;40456;53.358;-1.486;2023-02-15T04:59:17;15.50;;;10.00;;
54561;SDS011;40456;53.358;-1.486;2023-02-15T05:01:42;16.25;;;9.40;;
54561;SDS011;40456;53.358;-1.486;2023-02-15T05:04:07;17.42;;;10.60;;
54561;SDS011;40456;53.358;-1.486;2023-02-15T05:06:34;19.23;;;10.98;;
54561;SDS011;40456;53.358;-1.486;2023-02-15T05:08:59;15.98;;;9.65;;
54561;SDS011;40456;53.358;-1.486;2023-02-15T05:11:25;14.90;;;9.70;;
54561;SDS011;40456;53.358;-1.486;2023-02-15T05:13:51;17.73;;;10.35;;
54561;SDS011;40456;53.358;-1.486;2023-02-15T05:16:16;18.13;;;11.23;;
54561;SDS011;40456;53.358;-1.486;2023-02-15T05:18:41;15.68;;;10.55;;
54561;SDS011;40456;53.358;-1.486;2023-02-15T05:21:07;16.77;;;9.80;;
54561;SDS011;40456;53.358;-1.486;2023-02-15T05:23:32;25.52;;;11.00;;
54561;SDS011;40456;53.358;-1.486;2023-02-15T05:25:58;17.08;;;9.93;;
54561;SDS011;40456;53.358;-1.486;2023-02-15T05:28:42;18.42;;;10.50;;
54561;SDS011;40456;53.358;-1.486;2023-02-15T05:31:09;17.98;;;10.25;;
54561;SDS011;40456;53.358;-1.486;2023-02-15T05:33:38;18.67;;;10.98;;
54561;SDS011;40456;53.358;-1.486;2023-02-15T05:36:04;19.85;;;11.25;;
54561;SDS011;40456;53.358;-1.486;2023-02-15T05:38:30;18.85;;;11.27;;
54561;SDS011;40456;53.358;-1.486;2023-02-15T05:40:56;18.05;;;11.93;;
54561;SDS011;40456;53.358;-1.486;2023-02-15T05:43:22;18.88;;;10.88;;
54561;SDS011;40456;53.358;-1.486;2023-02-15T05:45:48;18.10;;;11.40;;
54561;SDS011;40456;53.358;-1.486;2023-02-15T05:48:14;16.42;;;11.05;;
54561;SDS011;40456;53.358;-1.486;2023-02-15T05:50:40;17.05;;;10.05;;
54561;SDS011;40456;53.358;-1.486;2023-02-15T05:53:06;16.50;;;10.55;;
54561;SDS011;40456;53.358;-1.486;2023-02-15T05:55:31;17.65;;;10.02;;
54561;SDS011;40456;53.358;-1.486;2023-02-15T05:57:57;18.27;;;11.65;;
54561;SDS011;40456;53.358;-1.486;2023-02-15T06:00:22;17.50;;;11.07;;
54561;SDS011;40456;53.358;-1.486;2023-02-15T06:02:48;16.73;;;10.07;;
54561;SDS011;40456;53.358;-1.486;2023-02-15T06:05:13;18.70;;;11.05;;
54561;SDS011;40456;53.358;-1.486;2023-02-15T06:07:39;16.52;;;10.10;;
54561;SDS011;40456;53.358;-1.486;2023-02-15T06:10:04;15.80;;;9.80;;
54561;SDS011;40456;53.358;-1.486;2023-02-15T06:12:30;20.27;;;10.85;;
54561;SDS011;40456;53.358;-1.486;2023-02-15T06:14:55;15.73;;;11.32;;
54561;SDS011;40456;53.358;-1.486;2023-02-15T06:17:21;15.73;;;9.95;;
54561;SDS011;40456;53.358;-1.486;2023-02-15T06:19:46;15.63;;;10.38;;
54561;SDS011;40456;53.358;-1.486;2023-02-15T06:22:12;17.42;;;10.25;;
54561;SDS011;40456;53.358;-1.486;2023-02-15T06:24:39;18.20;;;10.40;;
54561;SDS011;40456;53.358;-1.486;2023-02-15T06:27:05;19.45;;;10.70;;
54561;SDS011;40456;53.358;-1.486;2023-02-15T06:29:30;17.00;;;9.90;;
54561;SDS011;40456;53.358;-1.486;2023-02-15T06:31:55;17.10;;;9.93;;
54561;SDS011;40456;53.358;-1.486;2023-02-15T06:34:21;19.02;;;10.68;;
54561;SDS011;40456;53.358;-1.486;2023-02-15T06:36:46;13.95;;;9.93;;
54561;SDS011;40456;53.358;-1.486;2023-02-15T06:39:11;16.27;;;9.85;;
54561;SDS011;40456;53.358;-1.486;2023-02-15T06:41:37;18.35;;;11.27;;
54561;SDS011;40456;53.358;-1.486;2023-02-15T06:44:02;16.75;;;9.45;;
54561;SDS011;40456;53.358;-1.486;2023-02-15T06:46:28;17.50;;;9.60;;
54561;SDS011;40456;53.358;-1.486;2023-02-15T06:48:53;16.45;;;9.63;;
54561;SDS011;40456;53.358;-1.486;2023-02-15T06:51:19;18.70;;;10.50;;
54561;SDS011;40456;53.358;-1.486;2023-02-15T06:53:44;16.35;;;9.77;;
54561;SDS011;40456;53.358;-1.486;2023-02-15T06:56:10;17.33;;;10.10;;
54561;SDS011;40456;53.358;-1.486;2023-02-15T06:58:36;14.45;;;9.57;;
54561;SDS011;40456;53.358;-1.486;2023-02-15T07:01:02;17.90;;;10.73;;
54561;SDS011;40456;53.358;-1.486;2023-02-15T07:03:28;18.15;;;10.02;;
54561;SDS011;40456;53.358;-1.486;2023-02-15T07:05:57;14.25;;;9.60;;
54561;SDS011;40456;53.358;-1.486;2023-02-15T07:08:24;13.30;;;9.43;;
54561;SDS011;40456;53.358;-1.486;2023-02-15T07:10:50;17.27;;;10.48;;
54561;SDS011;40456;53.358;-1.486;2023-02-15T07:13:16;18.23;;;10.65;;
54561;SDS011;40456;53.358;-1.486;2023-02-15T07:15:42;17.85;;;11.55;;
54561;SDS011;40456;53.358;-1.486;2023-02-15T07:18:07;16.65;;;9.95;;
54561;SDS011;40456;53.358;-1.486;2023-02-15T07:20:34;15.70;;;10.38;;
54561;SDS011;40456;53.358;-1.486;2023-02-15T07:23:00;17.33;;;10.13;;
54561;SDS011;40456;53.358;-1.486;2023-02-15T07:25:26;18.23;;;10.57;;
54561;SDS011;40456;53.358;-1.486;2023-02-15T07:27:56;16.45;;;11.07;;
54561;SDS011;40456;53.358;-1.486;2023-02-15T07:30:22;18.40;;;11.68;;
54561;SDS011;40456;53.358;-1.486;2023-02-15T07:32:48;17.08;;;10.20;;
54561;SDS011;40456;53.358;-1.486;2023-02-15T07:35:32;17.65;;;10.15;;
54561;SDS011;40456;53.358;-1.486;2023-02-15T07:37:57;15.85;;;10.05;;
54561;SDS011;40456;53.358;-1.486;2023-02-15T07:40:23;19.92;;;10.60;;
54561;SDS011;40456;53.358;-1.486;2023-02-15T07:42:49;15.75;;;10.55;;
54561;SDS011;40456;53.358;-1.486;2023-02-15T07:45:16;16.23;;;10.90;;
54561;SDS011;40456;53.358;-1.486;2023-02-15T07:47:42;16.80;;;10.48;;
54561;SDS011;40456;53.358;-1.486;2023-02-15T07:50:07;18.40;;;10.75;;
54561;SDS011;40456;53.358;-1.486;2023-02-15T07:52:33;16.27;;;10.13;;
54561;SDS011;40456;53.358;-1.486;2023-02-15T07:54:58;20.45;;;10.23;;
54561;SDS011;40456;53.358;-1.486;2023-02-15T07:57:23;15.57;;;10.40;;
54561;SDS011;40456;53.358;-1.486;2023-02-15T07:59:49;17.45;;;10.45;;
54561;SDS011;40456;53.358;-1.486;2023-02-15T08:02:14;18.35;;;11.55;;
54561;SDS011;40456;53.358;-1.486;2023-02-15T08:04:40;16.70;;;10.73;;
54561;SDS011;40456;53.358;-1.486;2023-02-15T08:07:05;17.15;;;10.30;;
54561;SDS011;40456;53.358;-1.486;2023-02-15T08:09:31;18.10;;;10.98;;
54561;SDS011;40456;53.358;-1.486;2023-02-15T08:11:57;16.48;;;10.73;;
54561;SDS011;40456;53.358;-1.486;2023-02-15T08:14:22;19.25;;;11.18;;
54561;SDS011;40456;53.358;-1.486;2023-02-15T08:16:51;15.85;;;10.68;;
54561;SDS011;40456;53.358;-1.486;2023-02-15T08:19:21;15.93;;;9.98;;
54561;SDS011;40456;53.358;-1.486;2023-02-15T08:21:53;20.13;;;11.18;;
54561;SDS011;40456;53.358;-1.486;2023-02-15T08:24:23;20.75;;;11.48;;
54561;SDS011;40456;53.358;-1.486;2023-02-15T08:26:50;19.95;;;12.02;;
54561;SDS011;40456;53.358;-1.486;2023-02-15T08:29:17;18.85;;;12.32;;
54561;SDS011;40456;53.358;-1.486;2023-02-15T08:31:44;18.25;;;11.07;;
54561;SDS011;40456;53.358;-1.486;2023-02-15T08:34:10;23.65;;;13.88;;
54561;SDS011;40456;53.358;-1.486;2023-02-15T08:36:36;18.45;;;12.02;;
54561;SDS011;40456;53.358;-1.486;2023-02-15T08:39:03;22.58;;;13.57;;
54561;SDS011;40456;53.358;-1.486;2023-02-15T08:41:30;17.88;;;12.02;;
54561;SDS011;40456;53.358;-1.486;2023-02-15T08:43:58;20.77;;;12.65;;
54561;SDS011;40456;53.358;-1.486;2023-02-15T08:46:26;24.98;;;14.35;;
54561;SDS011;40456;53.358;-1.486;2023-02-15T08:48:53;24.52;;;13.18;;
54561;SDS011;40456;53.358;-1.486;2023-02-15T08:51:20;21.00;;;13.80;;
54561;SDS011;40456;53.358;-1.486;2023-02-15T08:53:47;17.92;;;11.85;;
54561;SDS011;40456;53.358;-1.486;2023-02-15T08:56:14;21.10;;;13.32;;
54561;SDS011;40456;53.358;-1.486;2023-02-15T08:58:40;19.33;;;13.25;;
54561;SDS011;40456;53.358;-1.486;2023-02-15T09:01:13;18.13;;;11.43;;
54561;SDS011;40456;53.358;-1.486;2023-02-15T09:03:43;18.75;;;11.30;;
54561;SDS011;40456;53.358;-1.486;2023-02-15T09:06:10;17.77;;;10.85;;
54561;SDS011;40456;53.358;-1.486;2023-02-15T09:08:35;17.30;;;11.18;;
54561;SDS011;40456;53.358;-1.486;2023-02-15T09:11:12;19.02;;;11.98;;
54561;SDS011;40456;53.358;-1.486;2023-02-15T09:13:38;20.55;;;11.30;;
54561;SDS011;40456;53.358;-1.486;2023-02-15T09:16:08;18.23;;;10.40;;
54561;SDS011;40456;53.358;-1.486;2023-02-15T09:18:36;18.23;;;11.35;;
54561;SDS011;40456;53.358;-1.486;2023-02-15T09:21:12;19.67;;;12.85;;
54561;SDS011;40456;53.358;-1.486;2023-02-15T09:23:40;18.25;;;11.40;;
54561;SDS011;40456;53.358;-1.486;2023-02-15T09:26:07;18.00;;;11.40;;
54561;SDS011;40456;53.358;-1.486;2023-02-15T09:28:34;17.52;;;11.57;;
54561;SDS011;40456;53.358;-1.486;2023-02-15T09:31:16;18.05;;;11.57;;
54561;SDS011;40456;53.358;-1.486;2023-02-15T09:33:43;17.70;;;11.57;;
54561;SDS011;40456;53.358;-1.486;2023-02-15T09:36:23;16.58;;;10.38;;
54561;SDS011;40456;53.358;-1.486;2023-02-15T09:38:54;19.30;;;10.93;;
54561;SDS011;40456;53.358;-1.486;2023-02-15T09:55:39;17.00;;;11.30;;
54561;SDS011;40456;53.358;-1.486;2023-02-15T10:12:21;19.42;;;10.57;;
54561;SDS011;40456;53.358;-1.486;2023-02-15T10:20:39;16.02;;;10.23;;
54561;SDS011;40456;53.358;-1.486;2023-02-15T10:26:19;17.52;;;10.30;;
54561;SDS011;40456;53.358;-1.486;2023-02-15T10:28:56;17.00;;;10.15;;
54561;SDS011;40456;53.358;-1.486;2023-02-15T10:32:16;13.85;;;9.07;;
54561;SDS011;40456;53.358;-1.486;2023-02-15T10:37:36;14.63;;;9.05;;
54561;SDS011;40456;53.358;-1.486;2023-02-15T10:45:56;14.27;;;9.32;;
54561;SDS011;40456;53.358;-1.486;2023-02-15T10:48:40;15.23;;;8.75;;
54561;SDS011;40456;53.358;-1.486;2023-02-15T10:51:30;13.75;;;9.07;;
54561;SDS011;40456;53.358;-1.486;2023-02-15T10:54:14;16.55;;;8.55;;
54561;SDS011;40456;53.358;-1.486;2023-02-15T10:57:18;14.98;;;10.10;;
54561;SDS011;40456;53.358;-1.486;2023-02-15T11:07:55;13.80;;;9.05;;
54561;SDS011;40456;53.358;-1.486;2023-02-15T11:13:09;18.83;;;9.73;;
54561;SDS011;40456;53.358;-1.486;2023-02-15T11:15:39;16.50;;;10.05;;
54561;SDS011;40456;53.358;-1.486;2023-02-15T11:18:13;16.17;;;9.57;;
54561;SDS011;40456;53.358;-1.486;2023-02-15T11:23:42;15.45;;;7.95;;
54561;SDS011;40456;53.358;-1.486;2023-02-15T11:26:13;17.35;;;9.38;;
54561;SDS011;40456;53.358;-1.486;2023-02-15T11:28:49;16.58;;;9.55;;
54561;SDS011;40456;53.358;-1.486;2023-02-15T11:31:19;18.52;;;9.70;;
54561;SDS011;40456;53.358;-1.486;2023-02-15T11:33:50;14.85;;;9.88;;
54561;SDS011;40456;53.358;-1.486;2023-02-15T11:38:50;13.52;;;8.95;;
54561;SDS011;40456;53.358;-1.486;2023-02-15T11:41:22;12.10;;;8.13;;
54561;SDS011;40456;53.358;-1.486;2023-02-15T11:44:00;13.05;;;8.55;;
54561;SDS011;40456;53.358;-1.486;2023-02-15T11:46:45;15.18;;;8.90;;
54561;SDS011;40456;53.358;-1.486;2023-02-15T11:49:30;14.77;;;8.85;;
54561;SDS011;40456;53.358;-1.486;2023-02-15T11:51:57;14.52;;;8.32;;
54561;SDS011;40456;53.358;-1.486;2023-02-15T11:54:28;11.38;;;7.78;;
54561;SDS011;40456;53.358;-1.486;2023-02-15T11:56:55;13.15;;;8.07;;
54561;SDS011;40456;53.358;-1.486;2023-02-15T11:59:29;16.17;;;9.18;;
54561;SDS011;40456;53.358;-1.486;2023-02-15T12:01:57;14.23;;;8.38;;
54561;SDS011;40456;53.358;-1.486;2023-02-15T12:04:28;12.15;;;7.78;;
54561;SDS011;40456;53.358;-1.486;2023-02-15T12:07:11;14.63;;;9.00;;
54561;SDS011;40456;53.358;-1.486;2023-02-15T12:09:55;14.68;;;8.13;;
54561;SDS011;40456;53.358;-1.486;2023-02-15T12:14:59;10.40;;;7.05;;
54561;SDS011;40456;53.358;-1.486;2023-02-15T12:17:27;12.07;;;7.07;;
54561;SDS011;40456;53.358;-1.486;2023-02-15T12:19:56;10.18;;;6.63;;
54561;SDS011;40456;53.358;-1.486;2023-02-15T12:22:30;13.07;;;7.38;;
54561;SDS011;40456;53.358;-1.486;2023-02-15T12:24:59;10.20;;;6.82;;
54561;SDS011;40456;53.358;-1.486;2023-02-15T12:27:27;10.75;;;6.85;;
54561;SDS011;40456;53.358;-1.486;2023-02-15T12:32:31;13.20;;;7.35;;
54561;SDS011;40456;53.358;-1.486;2023-02-15T12:35:12;12.32;;;7.38;;
54561;SDS011;40456;53.358;-1.486;2023-02-15T12:37:39;11.38;;;6.97;;
54561;SDS011;40456;53.358;-1.486;2023-02-15T12:40:22;10.55;;;7.13;;
54561;SDS011;40456;53.358;-1.486;2023-02-15T12:42:55;12.23;;;7.25;;
54561;SDS011;40456;53.358;-1.486;2023-02-15T12:50:44;11.25;;;6.93;;
54561;SDS011;40456;53.358;-1.486;2023-02-15T12:53:19;11.13;;;6.82;;
54561;SDS011;40456;53.358;-1.486;2023-02-15T12:55:56;9.95;;;6.60;;
54561;SDS011;40456;53.358;-1.486;2023-02-15T12:58:26;9.65;;;6.20;;
54561;SDS011;40456;53.358;-1.486;2023-02-15T13:03:33;9.55;;;6.53;;
54561;SDS011;40456;53.358;-1.486;2023-02-15T13:05:59;10.88;;;7.00;;
54561;SDS011;40456;53.358;-1.486;2023-02-15T13:08:27;11.18;;;6.45;;
54561;SDS011;40456;53.358;-1.486;2023-02-15T13:10:56;11.27;;;7.00;;
54561;SDS011;40456;53.358;-1.486;2023-02-15T13:13:26;10.70;;;7.65;;
54561;SDS011;40456;53.358;-1.486;2023-02-15T13:15:55;9.98;;;6.93;;
54561;SDS011;40456;53.358;-1.486;2023-02-15T13:21:45;12.82;;;7.63;;
54561;SDS011;40456;53.358;-1.486;2023-02-15T13:24:10;10.85;;;6.78;;
54561;SDS011;40456;53.358;-1.486;2023-02-15T13:26:58;10.35;;;6.45;;
54561;SDS011;40456;53.358;-1.486;2023-02-15T13:29:25;14.20;;;7.05;;
54561;SDS011;40456;53.358;-1.486;2023-02-15T13:31:52;9.85;;;6.53;;
54561;SDS011;40456;53.358;-1.486;2023-02-15T13:34:25;12.63;;;6.70;;
54561;SDS011;40456;53.358;-1.486;2023-02-15T13:37:00;9.68;;;6.15;;
54561;SDS011;40456;53.358;-1.486;2023-02-15T13:39:54;9.32;;;5.25;;
54561;SDS011;40456;53.358;-1.486;2023-02-15T14:04:39;9.73;;;5.45;;
54561;SDS011;40456;53.358;-1.486;2023-02-15T14:21:12;8.57;;;5.30;;
54561;SDS011;40456;53.358;-1.486;2023-02-15T14:29:16;11.27;;;5.78;;
54561;SDS011;40456;53.358;-1.486;2023-02-15T14:31:45;9.30;;;5.38;;
54561;SDS011;40456;53.358;-1.486;2023-02-15T14:37:03;8.23;;;4.85;;
54561;SDS011;40456;53.358;-1.486;2023-02-15T14:45:28;9.30;;;5.10;;
54561;SDS011;40456;53.358;-1.486;2023-02-15T14:48:04;11.63;;;5.25;;
54561;SDS011;40456;53.358;-1.486;2023-02-15T14:50:38;7.72;;;4.72;;
54561;SDS011;40456;53.358;-1.486;2023-02-15T14:58:57;9.50;;;4.57;;
54561;SDS011;40456;53.358;-1.486;2023-02-15T15:01:34;7.65;;;4.40;;
54561;SDS011;40456;53.358;-1.486;2023-02-15T15:04:05;8.63;;;4.82;;
54561;SDS011;40456;53.358;-1.486;2023-02-15T15:06:37;9.35;;;5.68;;
54561;SDS011;40456;53.358;-1.486;2023-02-15T15:11:45;8.73;;;4.80;;
54561;SDS011;40456;53.358;-1.486;2023-02-15T15:16:59;8.43;;;4.88;;
54561;SDS011;40456;53.358;-1.486;2023-02-15T15:27:36;10.60;;;5.13;;
54561;SDS011;40456;53.358;-1.486;2023-02-15T15:38:04;8.30;;;4.53;;
54561;SDS011;40456;53.358;-1.486;2023-02-15T15:43:30;7.57;;;5.05;;
54561;SDS011;40456;53.358;-1.486;2023-02-15T15:46:11;8.70;;;4.90;;
54561;SDS011;40456;53.358;-1.486;2023-02-15T15:48:43;8.27;;;4.32;;
54561;SDS011;40456;53.358;-1.486;2023-02-15T15:51:14;7.97;;;4.57;;
54561;SDS011;40456;53.358;-1.486;2023-02-15T15:53:45;6.25;;;4.10;;
54561;SDS011;40456;53.358;-1.486;2023-02-15T15:56:15;8.60;;;4.30;;
54561;SDS011;40456;53.358;-1.486;2023-02-15T15:58:54;6.70;;;4.13;;
54561;SDS011;40456;53.358;-1.486;2023-02-15T16:01:26;8.30;;;4.75;;
54561;SDS011;40456;53.358;-1.486;2023-02-15T16:03:54;8.13;;;4.57;;
54561;SDS011;40456;53.358;-1.486;2023-02-15T16:06:32;8.52;;;4.88;;
54561;SDS011;40456;53.358;-1.486;2023-02-15T16:11:55;10.25;;;5.55;;
54561;SDS011;40456;53.358;-1.486;2023-02-15T16:17:02;9.00;;;5.22;;
54561;SDS011;40456;53.358;-1.486;2023-02-15T16:19:33;7.70;;;5.15;;
54561;SDS011;40456;53.358;-1.486;2023-02-15T16:22:01;8.52;;;5.25;;
54561;SDS011;40456;53.358;-1.486;2023-02-15T16:24:37;8.02;;;4.78;;
54561;SDS011;40456;53.358;-1.486;2023-02-15T16:29:44;10.10;;;5.68;;
54561;SDS011;40456;53.358;-1.486;2023-02-15T16:32:18;8.18;;;5.07;;
54561;SDS011;40456;53.358;-1.486;2023-02-15T16:37:18;7.63;;;5.05;;
54561;SDS011;40456;53.358;-1.486;2023-02-15T16:39:48;9.43;;;5.95;;
54561;SDS011;40456;53.358;-1.486;2023-02-15T16:42:14;8.38;;;5.40;;
54561;SDS011;40456;53.358;-1.486;2023-02-15T16:44:41;8.02;;;5.43;;
54561;SDS011;40456;53.358;-1.486;2023-02-15T16:47:12;8.65;;;5.28;;
54561;SDS011;40456;53.358;-1.486;2023-02-15T16:50:01;7.78;;;5.15;;
54561;SDS011;40456;53.358;-1.486;2023-02-15T16:52:27;8.45;;;5.30;;
54561;SDS011;40456;53.358;-1.486;2023-02-15T16:54:54;8.02;;;5.35;;
54561;SDS011;40456;53.358;-1.486;2023-02-15T16:57:25;10.48;;;5.65;;
54561;SDS011;40456;53.358;-1.486;2023-02-15T16:59:54;10.55;;;5.20;;
54561;SDS011;40456;53.358;-1.486;2023-02-15T17:02:25;11.38;;;5.57;;
54561;SDS011;40456;53.358;-1.486;2023-02-15T17:05:01;12.40;;;5.93;;
54561;SDS011;40456;53.358;-1.486;2023-02-15T17:07:39;8.23;;;5.30;;
54561;SDS011;40456;53.358;-1.486;2023-02-15T17:10:28;8.20;;;5.13;;
54561;SDS011;40456;53.358;-1.486;2023-02-15T17:13:00;9.68;;;5.47;;
54561;SDS011;40456;53.358;-1.486;2023-02-15T17:18:00;8.02;;;5.40;;
54561;SDS011;40456;53.358;-1.486;2023-02-15T17:20:28;8.52;;;5.05;;
54561;SDS011;40456;53.358;-1.486;2023-02-15T17:22:53;7.60;;;5.05;;
54561;SDS011;40456;53.358;-1.486;2023-02-15T17:25:20;8.00;;;5.45;;
54561;SDS011;40456;53.358;-1.486;2023-02-15T17:27:52;13.07;;;6.50;;
54561;SDS011;40456;53.358;-1.486;2023-02-15T17:30:36;9.82;;;6.60;;
54561;SDS011;40456;53.358;-1.486;2023-02-15T17:33:03;11.73;;;7.35;;
54561;SDS011;40456;53.358;-1.486;2023-02-15T17:35:30;10.52;;;6.90;;
54561;SDS011;40456;53.358;-1.486;2023-02-15T17:38:13;13.68;;;7.88;;
54561;SDS011;40456;53.358;-1.486;2023-02-15T17:40:42;12.23;;;8.23;;
54561;SDS011;40456;53.358;-1.486;2023-02-15T17:43:07;10.45;;;6.90;;
54561;SDS011;40456;53.358;-1.486;2023-02-15T17:45:34;17.55;;;9.48;;
54561;SDS011;40456;53.358;-1.486;2023-02-15T17:48:03;12.30;;;8.00;;
54561;SDS011;40456;53.358;-1.486;2023-02-15T17:50:30;14.10;;;7.85;;
54561;SDS011;40456;53.358;-1.486;2023-02-15T17:52:56;11.05;;;7.07;;
54561;SDS011;40456;53.358;-1.486;2023-02-15T17:55:23;9.63;;;6.43;;